sensor_id;sensor_type;location;lat;lon;timestamp;temperature;humidity
25280;DHT22;13225;47.804;12.116;2023-03-31T00:01:29;8.20;99.90
25280;DHT22;13225;47.804;12.116;2023-03-31T00:03:55;8.20;99.90
25280;DHT22;13225;47.804;12.116;2023-03-31T00:06:29;8.20;99.90
25280;DHT22;13225;47.804;12.116;2023-03-31T00:08:55;8.20;99.90
25280;DHT22;13225;47.804;12.116;2023-03-31T00:11:26;8.20;99.90
25280;DHT22;13225;47.804;12.116;2023-03-31T00:13:52;8.20;99.90
25280;DHT22;13225;47.804;12.116;2023-03-31T00:16:18;8.20;99.90
25280;DHT22;13225;47.804;12.116;2023-03-31T00:18:44;8.20;99.90
25280;DHT22;13225;47.804;12.116;2023-03-31T00:21:13;8.20;99.90
25280;DHT22;13225;47.804;12.116;2023-03-31T00:23:39;8.20;99.90
25280;DHT22;13225;47.804;12.116;2023-03-31T00:26:05;8.10;99.90
25280;DHT22;13225;47.804;12.116;2023-03-31T00:28:31;8.20;99.90
25280;DHT22;13225;47.804;12.116;2023-03-31T00:31:03;8.20;99.90
25280;DHT22;13225;47.804;12.116;2023-03-31T00:33:29;8.10;99.90
25280;DHT22;13225;47.804;12.116;2023-03-31T00:35:55;8.20;99.90
25280;DHT22;13225;47.804;12.116;2023-03-31T00:38:21;8.20;99.90
25280;DHT22;13225;47.804;12.116;2023-03-31T00:40:47;8.20;99.90
25280;DHT22;13225;47.804;12.116;2023-03-31T00:43:36;8.20;99.90
25280;DHT22;13225;47.804;12.116;2023-03-31T00:46:24;8.20;99.90
25280;DHT22;13225;47.804;12.116;2023-03-31T00:48:54;8.30;99.90
25280;DHT22;13225;47.804;12.116;2023-03-31T00:51:23;8.30;99.90
25280;DHT22;13225;47.804;12.116;2023-03-31T00:53:55;8.40;99.90
25280;DHT22;13225;47.804;12.116;2023-03-31T00:56:25;8.40;99.90
25280;DHT22;13225;47.804;12.116;2023-03-31T00:58:52;8.40;99.90
25280;DHT22;13225;47.804;12.116;2023-03-31T01:01:23;8.50;99.90
25280;DHT22;13225;47.804;12.116;2023-03-31T01:03:49;8.50;99.90
25280;DHT22;13225;47.804;12.116;2023-03-31T01:06:15;8.50;99.90
25280;DHT22;13225;47.804;12.116;2023-03-31T01:08:47;8.40;99.90
25280;DHT22;13225;47.804;12.116;2023-03-31T01:11:17;8.40;99.90
25280;DHT22;13225;47.804;12.116;2023-03-31T01:13:44;8.40;99.90
25280;DHT22;13225;47.804;12.116;2023-03-31T01:16:10;8.50;99.90
25280;DHT22;13225;47.804;12.116;2023-03-31T01:18:36;8.50;99.90
25280;DHT22;13225;47.804;12.116;2023-03-31T01:43:09;8.60;99.90
25280;DHT22;13225;47.804;12.116;2023-03-31T01:48:53;8.50;99.90
25280;DHT22;13225;47.804;12.116;2023-03-31T01:56:38;8.50;99.90
25280;DHT22;13225;47.804;12.116;2023-03-31T01:59:12;8.50;99.90
25280;DHT22;13225;47.804;12.116;2023-03-31T02:04:31;8.60;99.90
25280;DHT22;13225;47.804;12.116;2023-03-31T02:07:03;8.60;99.90
25280;DHT22;13225;47.804;12.116;2023-03-31T02:09:37;8.60;99.90
25280;DHT22;13225;47.804;12.116;2023-03-31T02:12:09;8.60;99.90
25280;DHT22;13225;47.804;12.116;2023-03-31T02:14:37;8.60;99.90
25280;DHT22;13225;47.804;12.116;2023-03-31T02:17:06;8.60;99.90
25280;DHT22;13225;47.804;12.116;2023-03-31T02:19:36;8.60;99.90
25280;DHT22;13225;47.804;12.116;2023-03-31T02:22:05;8.60;99.90
25280;DHT22;13225;47.804;12.116;2023-03-31T02:24:33;8.60;99.90
25280;DHT22;13225;47.804;12.116;2023-03-31T02:27:24;8.60;99.90
25280;DHT22;13225;47.804;12.116;2023-03-31T02:29:50;8.60;99.90
25280;DHT22;13225;47.804;12.116;2023-03-31T02:32:30;8.50;99.90
25280;DHT22;13225;47.804;12.116;2023-03-31T02:34:57;8.50;99.90
25280;DHT22;13225;47.804;12.116;2023-03-31T02:37:24;8.50;99.90
25280;DHT22;13225;47.804;12.116;2023-03-31T02:39:51;8.50;99.90
25280;DHT22;13225;47.804;12.116;2023-03-31T02:42:18;8.50;99.90
25280;DHT22;13225;47.804;12.116;2023-03-31T02:44:44;8.50;99.90
25280;DHT22;13225;47.804;12.116;2023-03-31T02:47:14;8.40;99.90
25280;DHT22;13225;47.804;12.116;2023-03-31T02:49:51;8.40;99.90
25280;DHT22;13225;47.804;12.116;2023-03-31T02:57:55;8.40;99.90
25280;DHT22;13225;47.804;12.116;2023-03-31T03:00:45;8.40;99.90
25280;DHT22;13225;47.804;12.116;2023-03-31T03:03:49;8.40;99.90
25280;DHT22;13225;47.804;12.116;2023-03-31T03:11:58;8.50;99.90
25280;DHT22;13225;47.804;12.116;2023-03-31T03:17:11;8.40;99.90
25280;DHT22;13225;47.804;12.116;2023-03-31T03:19:40;8.40;99.90
25280;DHT22;13225;47.804;12.116;2023-03-31T03:22:06;8.50;99.90
25280;DHT22;13225;47.804;12.116;2023-03-31T03:24:32;8.50;99.90
25280;DHT22;13225;47.804;12.116;2023-03-31T03:26:58;8.50;99.90
25280;DHT22;13225;47.804;12.116;2023-03-31T03:29:24;8.40;99.90
25280;DHT22;13225;47.804;12.116;2023-03-31T03:31:51;8.50;99.90
25280;DHT22;13225;47.804;12.116;2023-03-31T03:34:17;8.40;99.90
25280;DHT22;13225;47.804;12.116;2023-03-31T03:36:45;8.40;99.90
25280;DHT22;13225;47.804;12.116;2023-03-31T03:39:11;8.40;99.90
25280;DHT22;13225;47.804;12.116;2023-03-31T03:41:37;8.30;99.90
25280;DHT22;13225;47.804;12.116;2023-03-31T03:44:02;8.30;99.90
25280;DHT22;13225;47.804;12.116;2023-03-31T03:46:28;8.30;99.90
25280;DHT22;13225;47.804;12.116;2023-03-31T03:48:54;8.40;99.90
25280;DHT22;13225;47.804;12.116;2023-03-31T03:51:20;8.30;99.90
25280;DHT22;13225;47.804;12.116;2023-03-31T03:53:46;8.30;99.90
25280;DHT22;13225;47.804;12.116;2023-03-31T03:56:12;8.20;99.90
25280;DHT22;13225;47.804;12.116;2023-03-31T03:58:37;8.20;99.90
25280;DHT22;13225;47.804;12.116;2023-03-31T04:01:03;8.20;99.90
25280;DHT22;13225;47.804;12.116;2023-03-31T04:03:29;8.20;99.90
25280;DHT22;13225;47.804;12.116;2023-03-31T04:05:55;8.20;99.90
25280;DHT22;13225;47.804;12.116;2023-03-31T04:08:21;8.20;99.90
25280;DHT22;13225;47.804;12.116;2023-03-31T04:10:48;8.20;99.90
25280;DHT22;13225;47.804;12.116;2023-03-31T04:13:15;8.20;99.90
25280;DHT22;13225;47.804;12.116;2023-03-31T04:15:41;8.10;99.90
25280;DHT22;13225;47.804;12.116;2023-03-31T04:18:07;8.10;99.90
25280;DHT22;13225;47.804;12.116;2023-03-31T04:20:35;8.10;99.90
25280;DHT22;13225;47.804;12.116;2023-03-31T04:23:03;8.10;99.90
25280;DHT22;13225;47.804;12.116;2023-03-31T04:25:30;8.10;99.90
25280;DHT22;13225;47.804;12.116;2023-03-31T04:27:56;8.10;99.90
25280;DHT22;13225;47.804;12.116;2023-03-31T04:30:26;8.10;99.90
25280;DHT22;13225;47.804;12.116;2023-03-31T04:33:04;8.10;99.90
25280;DHT22;13225;47.804;12.116;2023-03-31T04:35:31;8.10;99.90
25280;DHT22;13225;47.804;12.116;2023-03-31T04:38:12;8.10;99.90
25280;DHT22;13225;47.804;12.116;2023-03-31T04:40:38;8.00;99.90
25280;DHT22;13225;47.804;12.116;2023-03-31T04:43:05;8.00;99.90
25280;DHT22;13225;47.804;12.116;2023-03-31T04:45:31;8.00;99.90
25280;DHT22;13225;47.804;12.116;2023-03-31T04:47:56;8.00;99.90
25280;DHT22;13225;47.804;12.116;2023-03-31T04:50:22;8.00;99.90
25280;DHT22;13225;47.804;12.116;2023-03-31T04:52:47;8.00;99.90
25280;DHT22;13225;47.804;12.116;2023-03-31T04:55:13;7.90;99.90
25280;DHT22;13225;47.804;12.116;2023-03-31T04:57:39;7.80;99.90
25280;DHT22;13225;47.804;12.116;2023-03-31T05:00:05;7.90;99.90
25280;DHT22;13225;47.804;12.116;2023-03-31T05:02:32;7.80;99.90
25280;DHT22;13225;47.804;12.116;2023-03-31T05:04:58;7.80;99.90
25280;DHT22;13225;47.804;12.116;2023-03-31T05:07:23;7.80;99.90
25280;DHT22;13225;47.804;12.116;2023-03-31T05:09:49;7.80;99.90
25280;DHT22;13225;47.804;12.116;2023-03-31T05:12:15;7.70;99.90
25280;DHT22;13225;47.804;12.116;2023-03-31T05:14:41;7.70;99.90
25280;DHT22;13225;47.804;12.116;2023-03-31T05:17:07;7.70;99.90
25280;DHT22;13225;47.804;12.116;2023-03-31T05:19:33;7.70;99.90
25280;DHT22;13225;47.804;12.116;2023-03-31T05:21:58;7.70;99.90
25280;DHT22;13225;47.804;12.116;2023-03-31T05:24:24;7.60;99.90
25280;DHT22;13225;47.804;12.116;2023-03-31T05:26:49;7.60;99.90
25280;DHT22;13225;47.804;12.116;2023-03-31T05:29:18;7.60;99.90
25280;DHT22;13225;47.804;12.116;2023-03-31T05:31:44;7.70;99.90
25280;DHT22;13225;47.804;12.116;2023-03-31T05:34:10;7.80;99.90
25280;DHT22;13225;47.804;12.116;2023-03-31T05:36:35;7.90;99.90
25280;DHT22;13225;47.804;12.116;2023-03-31T05:39:03;8.00;99.90
25280;DHT22;13225;47.804;12.116;2023-03-31T05:41:29;8.10;99.90
25280;DHT22;13225;47.804;12.116;2023-03-31T05:43:54;8.10;99.90
25280;DHT22;13225;47.804;12.116;2023-03-31T05:46:21;8.10;99.90
25280;DHT22;13225;47.804;12.116;2023-03-31T05:48:47;8.20;99.90
25280;DHT22;13225;47.804;12.116;2023-03-31T05:51:13;8.20;99.90
25280;DHT22;13225;47.804;12.116;2023-03-31T05:53:38;8.20;99.90
25280;DHT22;13225;47.804;12.116;2023-03-31T05:56:05;8.30;99.90
25280;DHT22;13225;47.804;12.116;2023-03-31T05:58:34;8.30;99.90
25280;DHT22;13225;47.804;12.116;2023-03-31T06:01:08;8.20;99.90
25280;DHT22;13225;47.804;12.116;2023-03-31T06:03:38;8.20;99.90
25280;DHT22;13225;47.804;12.116;2023-03-31T06:06:06;8.20;99.90
25280;DHT22;13225;47.804;12.116;2023-03-31T06:08:33;8.20;99.90
25280;DHT22;13225;47.804;12.116;2023-03-31T06:10:59;8.20;99.90
25280;DHT22;13225;47.804;12.116;2023-03-31T06:13:24;8.30;99.90
25280;DHT22;13225;47.804;12.116;2023-03-31T06:15:58;8.40;99.90
25280;DHT22;13225;47.804;12.116;2023-03-31T06:18:26;8.60;99.90
25280;DHT22;13225;47.804;12.116;2023-03-31T06:20:53;8.60;99.90
25280;DHT22;13225;47.804;12.116;2023-03-31T06:23:19;8.60;99.90
25280;DHT22;13225;47.804;12.116;2023-03-31T06:25:44;8.60;99.90
25280;DHT22;13225;47.804;12.116;2023-03-31T06:28:10;8.60;99.90
25280;DHT22;13225;47.804;12.116;2023-03-31T06:30:36;8.80;99.90
25280;DHT22;13225;47.804;12.116;2023-03-31T06:33:02;9.00;99.90
25280;DHT22;13225;47.804;12.116;2023-03-31T06:35:27;9.20;99.90
25280;DHT22;13225;47.804;12.116;2023-03-31T06:37:53;9.30;99.90
25280;DHT22;13225;47.804;12.116;2023-03-31T06:40:18;9.40;99.90
25280;DHT22;13225;47.804;12.116;2023-03-31T06:42:44;9.60;99.90
25280;DHT22;13225;47.804;12.116;2023-03-31T06:45:10;9.70;99.90
25280;DHT22;13225;47.804;12.116;2023-03-31T06:47:35;9.50;99.90
25280;DHT22;13225;47.804;12.116;2023-03-31T06:50:06;9.50;99.90
25280;DHT22;13225;47.804;12.116;2023-03-31T06:52:33;9.60;99.90
25280;DHT22;13225;47.804;12.116;2023-03-31T06:54:58;9.60;99.90
25280;DHT22;13225;47.804;12.116;2023-03-31T06:57:25;9.70;99.90
25280;DHT22;13225;47.804;12.116;2023-03-31T06:59:51;9.70;99.90
25280;DHT22;13225;47.804;12.116;2023-03-31T07:02:16;9.70;99.90
25280;DHT22;13225;47.804;12.116;2023-03-31T07:04:42;9.70;99.90
25280;DHT22;13225;47.804;12.116;2023-03-31T07:07:07;9.70;99.90
25280;DHT22;13225;47.804;12.116;2023-03-31T07:09:33;9.80;99.90
25280;DHT22;13225;47.804;12.116;2023-03-31T07:11:58;9.80;99.90
25280;DHT22;13225;47.804;12.116;2023-03-31T07:14:24;9.90;99.90
25280;DHT22;13225;47.804;12.116;2023-03-31T07:16:50;9.90;99.90
25280;DHT22;13225;47.804;12.116;2023-03-31T07:19:16;10.00;99.90
25280;DHT22;13225;47.804;12.116;2023-03-31T07:21:42;10.10;99.90
25280;DHT22;13225;47.804;12.116;2023-03-31T07:24:07;10.30;99.90
25280;DHT22;13225;47.804;12.116;2023-03-31T07:26:33;10.20;99.90
25280;DHT22;13225;47.804;12.116;2023-03-31T07:28:58;10.00;99.90
25280;DHT22;13225;47.804;12.116;2023-03-31T07:31:24;9.90;99.90
25280;DHT22;13225;47.804;12.116;2023-03-31T07:33:50;9.80;99.90
25280;DHT22;13225;47.804;12.116;2023-03-31T07:36:16;9.70;99.90
25280;DHT22;13225;47.804;12.116;2023-03-31T07:38:43;9.70;99.90
25280;DHT22;13225;47.804;12.116;2023-03-31T07:41:12;9.70;99.90
25280;DHT22;13225;47.804;12.116;2023-03-31T07:43:38;9.70;99.90
25280;DHT22;13225;47.804;12.116;2023-03-31T07:46:04;9.70;99.90
25280;DHT22;13225;47.804;12.116;2023-03-31T07:48:30;9.60;99.90
25280;DHT22;13225;47.804;12.116;2023-03-31T07:50:55;9.50;99.90
25280;DHT22;13225;47.804;12.116;2023-03-31T07:53:21;9.50;99.90
25280;DHT22;13225;47.804;12.116;2023-03-31T07:55:47;9.40;99.90
25280;DHT22;13225;47.804;12.116;2023-03-31T07:58:13;9.30;99.90
25280;DHT22;13225;47.804;12.116;2023-03-31T08:00:38;9.40;99.90
25280;DHT22;13225;47.804;12.116;2023-03-31T08:03:04;9.40;99.90
25280;DHT22;13225;47.804;12.116;2023-03-31T08:05:31;9.40;99.90
25280;DHT22;13225;47.804;12.116;2023-03-31T08:07:57;9.40;99.90
25280;DHT22;13225;47.804;12.116;2023-03-31T08:10:25;9.30;99.90
25280;DHT22;13225;47.804;12.116;2023-03-31T08:12:51;9.30;99.90
25280;DHT22;13225;47.804;12.116;2023-03-31T08:15:17;9.20;99.90
25280;DHT22;13225;47.804;12.116;2023-03-31T08:17:43;9.00;99.90
25280;DHT22;13225;47.804;12.116;2023-03-31T08:20:09;9.00;99.90
25280;DHT22;13225;47.804;12.116;2023-03-31T08:22:36;9.00;99.90
25280;DHT22;13225;47.804;12.116;2023-03-31T08:25:03;9.10;99.90
25280;DHT22;13225;47.804;12.116;2023-03-31T08:27:33;9.10;99.90
25280;DHT22;13225;47.804;12.116;2023-03-31T08:29:59;9.30;99.90
25280;DHT22;13225;47.804;12.116;2023-03-31T08:32:27;9.30;99.90
25280;DHT22;13225;47.804;12.116;2023-03-31T08:34:53;9.40;99.90
25280;DHT22;13225;47.804;12.116;2023-03-31T08:37:18;9.40;99.90
25280;DHT22;13225;47.804;12.116;2023-03-31T08:39:44;9.50;99.90
25280;DHT22;13225;47.804;12.116;2023-03-31T08:42:14;9.40;99.90
25280;DHT22;13225;47.804;12.116;2023-03-31T08:45:01;9.50;99.90
25280;DHT22;13225;47.804;12.116;2023-03-31T08:47:29;9.60;99.90
25280;DHT22;13225;47.804;12.116;2023-03-31T08:50:18;9.80;99.90
25280;DHT22;13225;47.804;12.116;2023-03-31T08:53:05;10.00;99.90
25280;DHT22;13225;47.804;12.116;2023-03-31T08:55:42;9.80;99.90
25280;DHT22;13225;47.804;12.116;2023-03-31T08:58:28;9.70;99.90
25280;DHT22;13225;47.804;12.116;2023-03-31T09:07:02;10.20;99.90
25280;DHT22;13225;47.804;12.116;2023-03-31T09:09:44;10.00;99.90
25280;DHT22;13225;47.804;12.116;2023-03-31T09:12:20;10.00;99.90
25280;DHT22;13225;47.804;12.116;2023-03-31T09:14:59;10.20;99.90
25280;DHT22;13225;47.804;12.116;2023-03-31T09:17:29;10.10;99.90
25280;DHT22;13225;47.804;12.116;2023-03-31T09:20:15;10.00;99.90
25280;DHT22;13225;47.804;12.116;2023-03-31T09:22:49;10.00;99.90
25280;DHT22;13225;47.804;12.116;2023-03-31T09:25:22;10.00;99.90
25280;DHT22;13225;47.804;12.116;2023-03-31T09:27:53;10.00;99.90
25280;DHT22;13225;47.804;12.116;2023-03-31T09:30:31;10.40;99.90
25280;DHT22;13225;47.804;12.116;2023-03-31T09:33:25;10.50;99.90
25280;DHT22;13225;47.804;12.116;2023-03-31T09:35:57;10.70;99.90
25280;DHT22;13225;47.804;12.116;2023-03-31T09:38:23;11.00;99.90
25280;DHT22;13225;47.804;12.116;2023-03-31T09:40:57;11.40;99.90
25280;DHT22;13225;47.804;12.116;2023-03-31T09:43:28;11.70;99.90
25280;DHT22;13225;47.804;12.116;2023-03-31T09:45:56;12.00;99.90
25280;DHT22;13225;47.804;12.116;2023-03-31T09:48:27;12.20;99.90
25280;DHT22;13225;47.804;12.116;2023-03-31T09:51:04;12.40;99.90
25280;DHT22;13225;47.804;12.116;2023-03-31T09:53:38;12.60;99.90
25280;DHT22;13225;47.804;12.116;2023-03-31T09:56:06;12.70;99.90
25280;DHT22;13225;47.804;12.116;2023-03-31T09:58:42;12.90;99.90
25280;DHT22;13225;47.804;12.116;2023-03-31T10:01:10;13.00;99.90
25280;DHT22;13225;47.804;12.116;2023-03-31T10:03:50;13.00;99.90
25280;DHT22;13225;47.804;12.116;2023-03-31T10:06:16;13.00;99.90
25280;DHT22;13225;47.804;12.116;2023-03-31T10:09:01;13.00;99.90
25280;DHT22;13225;47.804;12.116;2023-03-31T10:11:28;12.90;99.90
25280;DHT22;13225;47.804;12.116;2023-03-31T10:14:02;12.90;99.90
25280;DHT22;13225;47.804;12.116;2023-03-31T10:18:54;13.20;99.90
25280;DHT22;13225;47.804;12.116;2023-03-31T10:21:24;13.20;99.90
25280;DHT22;13225;47.804;12.116;2023-03-31T10:23:50;13.10;99.90
25280;DHT22;13225;47.804;12.116;2023-03-31T10:26:19;13.20;99.90
25280;DHT22;13225;47.804;12.116;2023-03-31T10:28:48;13.10;99.90
25280;DHT22;13225;47.804;12.116;2023-03-31T10:31:23;13.00;99.90
25280;DHT22;13225;47.804;12.116;2023-03-31T10:33:51;13.00;99.90
25280;DHT22;13225;47.804;12.116;2023-03-31T10:36:25;12.90;99.90
25280;DHT22;13225;47.804;12.116;2023-03-31T10:38:51;12.90;99.90
25280;DHT22;13225;47.804;12.116;2023-03-31T10:41:29;12.90;99.90
25280;DHT22;13225;47.804;12.116;2023-03-31T10:43:56;13.00;99.90
25280;DHT22;13225;47.804;12.116;2023-03-31T10:46:47;13.00;99.90
25280;DHT22;13225;47.804;12.116;2023-03-31T10:49:37;12.90;99.90
25280;DHT22;13225;47.804;12.116;2023-03-31T10:54:47;12.80;99.90
25280;DHT22;13225;47.804;12.116;2023-03-31T10:57:14;12.70;99.90
25280;DHT22;13225;47.804;12.116;2023-03-31T10:59:50;12.60;99.90
25280;DHT22;13225;47.804;12.116;2023-03-31T11:02:44;12.50;99.90
25280;DHT22;13225;47.804;12.116;2023-03-31T11:05:35;12.50;99.90
25280;DHT22;13225;47.804;12.116;2023-03-31T11:11:07;12.40;99.90
25280;DHT22;13225;47.804;12.116;2023-03-31T11:24:59;12.70;99.90
25280;DHT22;13225;47.804;12.116;2023-03-31T11:30:41;13.10;99.90
25280;DHT22;13225;47.804;12.116;2023-03-31T11:33:50;13.30;99.90
25280;DHT22;13225;47.804;12.116;2023-03-31T11:37:09;13.70;99.90
25280;DHT22;13225;47.804;12.116;2023-03-31T11:42:12;13.90;99.90
25280;DHT22;13225;47.804;12.116;2023-03-31T11:44:43;13.90;99.90
25280;DHT22;13225;47.804;12.116;2023-03-31T11:47:18;13.80;99.90
25280;DHT22;13225;47.804;12.116;2023-03-31T11:49:59;13.70;99.90
25280;DHT22;13225;47.804;12.116;2023-03-31T11:52:33;13.30;99.90
25280;DHT22;13225;47.804;12.116;2023-03-31T11:55:32;13.20;99.90
25280;DHT22;13225;47.804;12.116;2023-03-31T12:05:31;12.70;99.90
25280;DHT22;13225;47.804;12.116;2023-03-31T12:11:23;10.50;99.90
25280;DHT22;13225;47.804;12.116;2023-03-31T12:16:51;9.60;99.90
25280;DHT22;13225;47.804;12.116;2023-03-31T12:19:42;9.60;99.90
25280;DHT22;13225;47.804;12.116;2023-03-31T12:24:35;9.60;99.90
25280;DHT22;13225;47.804;12.116;2023-03-31T12:27:07;9.60;99.90
25280;DHT22;13225;47.804;12.116;2023-03-31T12:29:57;9.70;99.90
25280;DHT22;13225;47.804;12.116;2023-03-31T12:32:38;9.80;99.90
25280;DHT22;13225;47.804;12.116;2023-03-31T12:35:34;10.00;99.90
25280;DHT22;13225;47.804;12.116;2023-03-31T12:59:36;10.50;99.90
25280;DHT22;13225;47.804;12.116;2023-03-31T13:04:35;10.50;99.90
25280;DHT22;13225;47.804;12.116;2023-03-31T13:09:49;10.50;99.90
25280;DHT22;13225;47.804;12.116;2023-03-31T13:12:22;10.60;99.90
25280;DHT22;13225;47.804;12.116;2023-03-31T13:14:51;10.60;99.90
25280;DHT22;13225;47.804;12.116;2023-03-31T13:17:26;10.60;99.90
25280;DHT22;13225;47.804;12.116;2023-03-31T13:19:53;10.60;99.90
25280;DHT22;13225;47.804;12.116;2023-03-31T13:22:36;10.60;99.90
25280;DHT22;13225;47.804;12.116;2023-03-31T13:25:34;10.70;99.90
25280;DHT22;13225;47.804;12.116;2023-03-31T13:30:48;10.50;99.90
25280;DHT22;13225;47.804;12.116;2023-03-31T13:33:34;10.30;99.90
25280;DHT22;13225;47.804;12.116;2023-03-31T13:38:49;8.90;99.90
25280;DHT22;13225;47.804;12.116;2023-03-31T13:55:35;8.50;99.90
25280;DHT22;13225;47.804;12.116;2023-03-31T14:04:10;8.70;99.90
25280;DHT22;13225;47.804;12.116;2023-03-31T14:06:46;8.70;99.90
25280;DHT22;13225;47.804;12.116;2023-03-31T14:11:47;8.70;99.90
25280;DHT22;13225;47.804;12.116;2023-03-31T14:14:14;8.70;99.90
25280;DHT22;13225;47.804;12.116;2023-03-31T14:17:01;8.70;99.90
25280;DHT22;13225;47.804;12.116;2023-03-31T14:27:54;9.10;99.90
25280;DHT22;13225;47.804;12.116;2023-03-31T14:35:45;9.30;99.90
25280;DHT22;13225;47.804;12.116;2023-03-31T14:38:20;9.50;99.90
25280;DHT22;13225;47.804;12.116;2023-03-31T14:40:49;9.50;99.90
25280;DHT22;13225;47.804;12.116;2023-03-31T14:43:20;9.80;99.90
25280;DHT22;13225;47.804;12.116;2023-03-31T14:45:47;10.00;99.90
25280;DHT22;13225;47.804;12.116;2023-03-31T14:48:17;10.10;99.90
25280;DHT22;13225;47.804;12.116;2023-03-31T14:50:45;10.20;99.90
25280;DHT22;13225;47.804;12.116;2023-03-31T14:53:22;10.30;99.90
25280;DHT22;13225;47.804;12.116;2023-03-31T14:55:49;10.30;99.90
25280;DHT22;13225;47.804;12.116;2023-03-31T14:58:26;10.20;99.90
25280;DHT22;13225;47.804;12.116;2023-03-31T15:00:53;10.20;99.90
25280;DHT22;13225;47.804;12.116;2023-03-31T15:03:19;10.10;99.90
25280;DHT22;13225;47.804;12.116;2023-03-31T15:05:45;10.20;99.90
25280;DHT22;13225;47.804;12.116;2023-03-31T15:08:17;10.40;99.90
25280;DHT22;13225;47.804;12.116;2023-03-31T15:10:54;10.50;99.90
25280;DHT22;13225;47.804;12.116;2023-03-31T15:16:42;11.00;99.90
25280;DHT22;13225;47.804;12.116;2023-03-31T15:19:21;11.40;99.90
25280;DHT22;13225;47.804;12.116;2023-03-31T15:22:10;11.70;99.90
25280;DHT22;13225;47.804;12.116;2023-03-31T15:24:38;11.50;99.90
25280;DHT22;13225;47.804;12.116;2023-03-31T15:27:29;11.40;99.90
25280;DHT22;13225;47.804;12.116;2023-03-31T15:29:58;11.40;99.90
25280;DHT22;13225;47.804;12.116;2023-03-31T15:32:30;11.30;99.90
25280;DHT22;13225;47.804;12.116;2023-03-31T15:34:57;11.40;99.90
25280;DHT22;13225;47.804;12.116;2023-03-31T15:37:26;11.30;99.90
25280;DHT22;13225;47.804;12.116;2023-03-31T15:39:55;11.40;99.90
25280;DHT22;13225;47.804;12.116;2023-03-31T15:42:23;11.40;99.90
25280;DHT22;13225;47.804;12.116;2023-03-31T15:47:48;11.30;99.90
25280;DHT22;13225;47.804;12.116;2023-03-31T15:50:14;11.20;99.90
25280;DHT22;13225;47.804;12.116;2023-03-31T15:52:51;11.20;99.90
25280;DHT22;13225;47.804;12.116;2023-03-31T15:55:29;11.20;99.90
25280;DHT22;13225;47.804;12.116;2023-03-31T15:57:57;11.10;99.90
25280;DHT22;13225;47.804;12.116;2023-03-31T16:02:59;11.20;99.90
25280;DHT22;13225;47.804;12.116;2023-03-31T16:05:55;11.30;99.90
25280;DHT22;13225;47.804;12.116;2023-03-31T16:08:37;11.50;99.90
25280;DHT22;13225;47.804;12.116;2023-03-31T16:11:11;11.50;99.90
25280;DHT22;13225;47.804;12.116;2023-03-31T16:13:41;11.60;99.90
25280;DHT22;13225;47.804;12.116;2023-03-31T16:16:10;11.70;99.90
25280;DHT22;13225;47.804;12.116;2023-03-31T16:18:44;11.90;99.90
25280;DHT22;13225;47.804;12.116;2023-03-31T16:21:12;12.00;99.90
25280;DHT22;13225;47.804;12.116;2023-03-31T16:23:40;12.20;99.90
25280;DHT22;13225;47.804;12.116;2023-03-31T16:26:09;12.40;99.90
25280;DHT22;13225;47.804;12.116;2023-03-31T16:28:37;12.50;99.90
25280;DHT22;13225;47.804;12.116;2023-03-31T16:31:03;12.50;99.90
25280;DHT22;13225;47.804;12.116;2023-03-31T16:33:31;12.40;99.90
25280;DHT22;13225;47.804;12.116;2023-03-31T16:36:16;12.30;99.90
25280;DHT22;13225;47.804;12.116;2023-03-31T16:38:42;12.10;99.90
25280;DHT22;13225;47.804;12.116;2023-03-31T16:41:07;11.70;99.90
25280;DHT22;13225;47.804;12.116;2023-03-31T16:43:33;11.40;99.90
25280;DHT22;13225;47.804;12.116;2023-03-31T16:46:01;11.20;99.90
25280;DHT22;13225;47.804;12.116;2023-03-31T16:48:29;10.90;99.90
25280;DHT22;13225;47.804;12.116;2023-03-31T16:50:58;10.70;99.90
25280;DHT22;13225;47.804;12.116;2023-03-31T16:53:29;10.60;99.90
25280;DHT22;13225;47.804;12.116;2023-03-31T16:55:56;10.50;99.90
25280;DHT22;13225;47.804;12.116;2023-03-31T16:58:22;10.40;99.90
25280;DHT22;13225;47.804;12.116;2023-03-31T17:00:51;10.30;99.90
25280;DHT22;13225;47.804;12.116;2023-03-31T17:03:17;10.30;99.90
25280;DHT22;13225;47.804;12.116;2023-03-31T17:05:45;10.20;99.90
25280;DHT22;13225;47.804;12.116;2023-03-31T17:08:12;10.20;99.90
25280;DHT22;13225;47.804;12.116;2023-03-31T17:10:39;10.20;99.90
25280;DHT22;13225;47.804;12.116;2023-03-31T17:13:05;10.10;99.90
25280;DHT22;13225;47.804;12.116;2023-03-31T17:15:31;10.00;99.90
25280;DHT22;13225;47.804;12.116;2023-03-31T17:17:59;10.00;99.90
25280;DHT22;13225;47.804;12.116;2023-03-31T17:20:25;9.90;99.90
25280;DHT22;13225;47.804;12.116;2023-03-31T17:22:50;9.90;99.90
25280;DHT22;13225;47.804;12.116;2023-03-31T17:25:17;9.80;99.90
25280;DHT22;13225;47.804;12.116;2023-03-31T17:27:43;9.80;99.90
25280;DHT22;13225;47.804;12.116;2023-03-31T17:30:10;9.80;99.90
25280;DHT22;13225;47.804;12.116;2023-03-31T17:32:36;9.80;99.90
25280;DHT22;13225;47.804;12.116;2023-03-31T17:35:02;9.70;99.90
25280;DHT22;13225;47.804;12.116;2023-03-31T17:37:28;9.70;99.90
25280;DHT22;13225;47.804;12.116;2023-03-31T17:39:54;9.70;99.90
25280;DHT22;13225;47.804;12.116;2023-03-31T17:42:20;9.80;99.90
25280;DHT22;13225;47.804;12.116;2023-03-31T17:44:46;9.80;99.90
25280;DHT22;13225;47.804;12.116;2023-03-31T17:47:14;9.70;99.90
25280;DHT22;13225;47.804;12.116;2023-03-31T17:49:40;9.60;99.90
25280;DHT22;13225;47.804;12.116;2023-03-31T17:52:06;9.60;99.90
25280;DHT22;13225;47.804;12.116;2023-03-31T17:54:31;9.60;99.90
25280;DHT22;13225;47.804;12.116;2023-03-31T17:56:57;9.60;99.90
25280;DHT22;13225;47.804;12.116;2023-03-31T17:59:23;9.60;99.90
25280;DHT22;13225;47.804;12.116;2023-03-31T18:01:48;10.10;99.90
25280;DHT22;13225;47.804;12.116;2023-03-31T18:04:14;10.10;99.90
25280;DHT22;13225;47.804;12.116;2023-03-31T18:06:40;10.60;99.90
25280;DHT22;13225;47.804;12.116;2023-03-31T18:09:07;10.50;99.90
25280;DHT22;13225;47.804;12.116;2023-03-31T18:11:34;10.30;99.90
25280;DHT22;13225;47.804;12.116;2023-03-31T18:13:59;10.10;99.90
25280;DHT22;13225;47.804;12.116;2023-03-31T18:16:27;10.00;99.90
25280;DHT22;13225;47.804;12.116;2023-03-31T18:18:54;10.00;99.90
25280;DHT22;13225;47.804;12.116;2023-03-31T18:21:20;9.90;99.90
25280;DHT22;13225;47.804;12.116;2023-03-31T18:23:48;9.90;99.90
25280;DHT22;13225;47.804;12.116;2023-03-31T18:26:18;9.90;99.90
25280;DHT22;13225;47.804;12.116;2023-03-31T18:28:44;9.80;99.90
25280;DHT22;13225;47.804;12.116;2023-03-31T18:31:10;9.70;99.90
25280;DHT22;13225;47.804;12.116;2023-03-31T18:33:36;9.60;99.90
25280;DHT22;13225;47.804;12.116;2023-03-31T18:36:02;9.60;99.90